This is the latest recevied weather packets stored in our database for station/object K1RFS. If no packets are shown the sender has not sent any weather packets the latest 10 day(s).
| Time | Temp. | Humidity | Pressure | Rain* | Wind** | Luminosity | Snow |
|---|---|---|---|---|---|---|---|
| 1787456626 | 21.67° C | 68% | 1005.8 hPa | 0 mm | - | 0 W/m² | - |
| 1787456323 | 21.67° C | 69% | 1005.8 hPa | 0 mm | - | 0 W/m² | - |
| 1787456018 | 21.67° C | 72% | 1006.1 hPa | 0 mm | - | 0 W/m² | - |
| 1787455713 | 21.67° C | 74% | 1006 hPa | 0 mm | - | 0 W/m² | - |
| 1787455408 | 21.67° C | 74% | 1006.1 hPa | 3.05 mm | - | 0 W/m² | - |
| 1787455104 | 22.78° C | 67% | 1006 hPa | 3.05 mm | - | 0 W/m² | - |
| 1787454800 | 23.33° C | 63% | 1005.8 hPa | 1.27 mm | - | 0 W/m² | - |
| 1787454496 | 23.33° C | 60% | 1006.3 hPa | 0 mm | - | 0 W/m² | - |
| 1787454191 | 23.33° C | 60% | 1006.1 hPa | 0 mm | - | 0 W/m² | - |
| 1787453890 | 23.33° C | 60% | 1006 hPa | 0 mm | - | 0 W/m² | - |
| 1787453587 | 23.33° C | 59% | 1005.8 hPa | 0 mm | - | 0 W/m² | - |
| 1787453281 | 23.33° C | 58% | 1005.6 hPa | 0 mm | - | 0 W/m² | - |
| 1787452976 | 23.89° C | 57% | 1005.4 hPa | 0 mm | - | 0 W/m² | - |
| 1787452675 | 23.89° C | 56% | 1005.3 hPa | 0 mm | - | 0 W/m² | - |
| 1787452375 | 23.89° C | 56% | 1005.3 hPa | 0 mm | - | 0 W/m² | - |
| 1787452072 | 25° C | 53% | 1005.2 hPa | 0 mm | - | 0 W/m² | - |
| 1787451766 | 25.56° C | 52% | 1005.3 hPa | 0 mm | - | 1 W/m² | - |
| 1787451466 | 26.11° C | 49% | 1005.2 hPa | 0 mm | - | 2 W/m² | - |
| 1787451161 | 26.11° C | 45% | 1004.6 hPa | 0 mm | - | 4 W/m² | - |
| 1787450856 | 25.56° C | 44% | 1004.7 hPa | 0 mm | - | 8 W/m² | - |
| 1787450552 | 25.56° C | 51% | 1004.7 hPa | 0 mm | - | 21 W/m² | - |
| 1787450247 | 25.56° C | 56% | 1004.5 hPa | 0 mm | - | 32 W/m² | - |
| 1787449943 | 25.56° C | 56% | 1004.5 hPa | 0 mm | - | 28 W/m² | - |
| 1787449639 | 25.56° C | 56% | 1004.6 hPa | 0 mm | - | 17 W/m² | - |
| 1787449334 | 25.56° C | 56% | 1004.4 hPa | 0 mm | - | 9 W/m² | - |
* Rain latest hour (hover to see other rain measurements)
** Current wind speed in m/s (hover to see current wind gust speed)